Airfield :
LOGIN :

Register | Disclaimer

   EN    FR    IT 

 










Legend :    VFR   Marginal VFR   IFR   Intensive IFR   Very Intensive IFR
Visi :
Ceiling :
>= 8 km
>= 3000ft
5 to 8 km
1000 to 3000 ft
1500m to 5 km
500 to 1000 ft
800 to 1500m
200 to 500 ft
< 800m
< 200 ft
Symbols :   Thunderstorms  Fog  Heavy snow  Heavy precipitations  Wind > 20 kt
SIGMETs :     Misc.  Thunderstorms  Icing  Turbulence  Mountain Waves  Volcanic Ashes






- Airport Elevation : 140 ft


ESTL - Ljungbyhed

CURRENT METAR :
  • 172050Z AUTO 23003KT 9999 FEW008/// SCT028/// 13/12 Q1010

EXPIRED METARs :
  • 172020Z AUTO 23003KT 9999 FEW007/// SCT015/// BKN032/// 13/13 Q1010
  • 171950Z AUTO 23003KT 9999 FEW006/// SCT008/// BKN025/// 12/12 Q1010
  • 171920Z AUTO VRB01KT 9000 BR FEW004/// BKN065/// 12/12 Q1010
  • 171850Z AUTO VRB01KT 7000 BR FEW011/// SCT015/// 12/12 Q1010
  • 171820Z AUTO 30002KT 9999 FEW005/// 13/13 Q1010

Expired Forecast.



MET'MAP, your aeronautical weather chart ! - Copyright ORBIFLY December 2007 - Disclaimer

ORBIFLY MET'MAP TEAM :

Programming & Development : Alexandra Zaïnal
Concept & Development : Baudouin d'Aumeries
Co-Development & Prog : Marc-Olivier Méhu
Technical & hardware support : Manuel Goepfert

Contact : metmap@orbifly.com




SOURCES & CREDITS :

   NOAA